Time;durP1;ratioP1;P1;durP2;ratioP2;P2;SDS_P1;SDS_P2;PMS_P1;PMS_P2;Temp;Humidity;BMP_temperature;BMP_pressure;BME280_temperature;BME280_humidity;BME280_pressure;Samples;Min_cycle;Max_cycle;Signal;HPM_P1;HPM_P2
2022/07/10 00:00:47;;;;;;;25.70;10.75;;;26.70;99.90;;;;;;5096427;28;20072;-72
2022/07/10 00:03:14;;;;;;;77.65;26.60;;;26.70;99.90;;;;;;5096183;28;20020;-72
2022/07/10 00:05:40;;;;;;;41.90;18.25;;;26.70;99.90;;;;;;5096180;28;20023;-71
2022/07/10 00:08:07;;;;;;;22.63;9.60;;;26.70;99.90;;;;;;5096175;28;20457;-72
2022/07/10 00:10:34;;;;;;;19.95;9.05;;;26.70;99.90;;;;;;5095333;28;20417;-70
2022/07/10 00:13:00;;;;;;;18.50;8.43;;;26.70;99.90;;;;;;5096023;28;20032;-69
2022/07/10 00:15:27;;;;;;;155.73;105.90;;;26.70;99.90;;;;;;5095980;28;20089;-72
2022/07/10 00:17:53;;;;;;;65.43;44.60;;;26.70;99.90;;;;;;5095891;28;20113;-71
2022/07/10 00:20:20;;;;;;;59.58;39.17;;;26.70;99.90;;;;;;5095991;28;20024;-72
2022/07/10 00:22:47;;;;;;;41.30;21.92;;;26.70;99.90;;;;;;5095927;28;20028;-73
2022/07/10 00:25:13;;;;;;;20.52;12.15;;;26.80;99.90;;;;;;5095671;28;20072;-71
2022/07/10 00:27:41;;;;;;;38.63;22.52;;;26.80;99.90;;;;;;5095673;28;20038;-72
2022/07/10 00:30:10;;;;;;;57.10;31.25;;;26.90;99.90;;;;;;5095868;28;20388;-72
2022/07/10 00:32:37;;;;;;;29.88;20.65;;;26.90;99.90;;;;;;5095459;28;20512;-71
2022/07/10 00:35:05;;;;;;;21.27;12.27;;;27.00;99.90;;;;;;5095676;28;20043;-71
2022/07/10 00:37:32;;;;;;;18.20;7.95;;;27.20;99.90;;;;;;5095695;28;20035;-70
2022/07/10 00:39:59;;;;;;;16.23;8.27;;;27.20;99.90;;;;;;5095531;28;20089;-73
2022/07/10 00:42:26;;;;;;;26.05;8.82;;;27.30;99.90;;;;;;5098103;28;20473;-70
2022/07/10 00:44:53;;;;;;;22.60;10.35;;;27.30;99.90;;;;;;5104340;28;20531;-70
2022/07/10 00:47:20;;;;;;;27.85;10.50;;;27.40;99.90;;;;;;5097997;28;20024;-69
2022/07/10 00:49:48;;;;;;;19.73;9.45;;;27.50;99.90;;;;;;5113156;28;20169;-68
2022/07/10 00:52:17;;;;;;;66.45;45.22;;;27.50;99.90;;;;;;5099101;28;20032;-68
2022/07/10 00:54:47;;;;;;;36.47;18.60;;;27.50;99.90;;;;;;5112530;28;20064;-69
2022/07/10 00:57:15;;;;;;;359.75;273.05;;;27.50;99.90;;;;;;5107938;28;20109;-69
2022/07/10 00:59:43;;;;;;;124.38;82.60;;;27.50;99.90;;;;;;5093730;28;20362;-70
2022/07/10 01:02:10;;;;;;;110.57;82.60;;;27.40;99.90;;;;;;5095184;28;20028;-69
2022/07/10 01:04:37;;;;;;;71.13;43.38;;;27.40;99.90;;;;;;5113901;28;20077;-69
2022/07/10 01:07:04;;;;;;;91.47;63.70;;;27.50;99.90;;;;;;5099119;28;20107;-69
2022/07/10 01:09:31;;;;;;;85.60;59.50;;;27.60;99.90;;;;;;5095119;28;20026;-69
2022/07/10 01:12:02;;;;;;;30.02;14.13;;;27.70;99.90;;;;;;5114776;28;20032;-70
2022/07/10 01:14:30;;;;;;;18.58;9.30;;;27.70;99.90;;;;;;5115304;28;20444;-69
2022/07/10 01:16:58;;;;;;;15.50;8.00;;;27.80;99.90;;;;;;5115266;28;20062;-69
2022/07/10 01:19:25;;;;;;;21.30;8.95;;;27.90;99.90;;;;;;5114866;28;20023;-69
2022/07/10 01:21:52;;;;;;;14.98;7.30;;;28.00;99.90;;;;;;5115096;28;20016;-69
2022/07/10 01:24:18;;;;;;;17.60;6.93;;;28.10;99.90;;;;;;5115192;28;20494;-70
2022/07/10 01:26:45;;;;;;;16.88;6.82;;;28.10;99.90;;;;;;5114866;28;20406;-70
2022/07/10 01:29:11;;;;;;;12.90;6.47;;;28.20;99.90;;;;;;5096958;28;20013;-68
2022/07/10 01:31:40;;;;;;;13.02;5.47;;;28.30;99.90;;;;;;5094573;28;20040;-70
2022/07/10 01:34:09;;;;;;;12.68;5.15;;;28.40;99.90;;;;;;5094348;28;20529;-71
2022/07/10 01:36:37;;;;;;;13.60;5.32;;;28.50;99.90;;;;;;5096729;28;20369;-71
2022/07/10 01:39:04;;;;;;;14.43;5.63;;;28.50;99.90;;;;;;5113351;28;20028;-70
2022/07/10 01:41:31;;;;;;;11.73;4.90;;;28.50;99.90;;;;;;5100548;28;20024;-70
2022/07/10 01:43:57;;;;;;;9.77;4.22;;;28.50;99.90;;;;;;5114386;28;20145;-72
2022/07/10 01:46:25;;;;;;;13.98;5.50;;;28.40;99.90;;;;;;5097312;28;20024;-69
2022/07/10 01:48:52;;;;;;;12.93;5.05;;;28.40;99.90;;;;;;5104147;28;20411;-70
2022/07/10 01:51:19;;;;;;;14.18;5.10;;;28.50;99.90;;;;;;5101011;28;20047;-70
2022/07/10 01:53:46;;;;;;;17.55;4.60;;;28.70;99.90;;;;;;5104450;28;20019;-71
2022/07/10 01:56:14;;;;;;;9.70;4.55;;;28.70;99.90;;;;;;5114593;28;20133;-70
2022/07/10 01:58:41;;;;;;;10.45;4.95;;;28.70;99.90;;;;;;5107904;28;20468;-70
2022/07/10 02:01:08;;;;;;;8.95;5.00;;;28.70;99.90;;;;;;5093407;28;20089;-69
2022/07/10 02:06:21;;;;;;;10.18;4.78;;;28.80;99.90;;;;;;5094039;28;20032;-70
2022/07/10 02:08:48;;;;;;;12.32;4.57;;;28.80;99.90;;;;;;5093993;28;20031;-69
2022/07/10 02:11:15;;;;;;;13.15;5.18;;;28.80;99.90;;;;;;5094000;28;20035;-69
2022/07/10 02:13:41;;;;;;;16.92;5.80;;;28.90;99.90;;;;;;5094070;28;20493;-72
2022/07/10 02:16:08;;;;;;;15.25;5.47;;;29.00;99.90;;;;;;5093992;28;20038;-70
2022/07/10 02:18:35;;;;;;;13.18;4.63;;;29.10;99.90;;;;;;5094009;28;20016;-71
2022/07/10 02:21:02;;;;;;;14.57;6.20;;;29.20;99.90;;;;;;5094256;28;20529;-70
2022/07/10 02:23:28;;;;;;;12.88;5.68;;;29.20;99.90;;;;;;5093658;28;20469;-70
2022/07/10 02:25:55;;;;;;;11.52;5.70;;;29.30;99.90;;;;;;5093620;28;20044;-71
2022/07/10 02:28:22;;;;;;;11.07;5.13;;;29.40;99.90;;;;;;5096839;28;20020;-73
2022/07/10 02:30:48;;;;;;;12.85;5.57;;;29.50;99.20;;;;;;5102139;28;20076;-71
2022/07/10 02:33:15;;;;;;;15.07;5.53;;;29.60;99.10;;;;;;5093242;28;20485;-72
2022/07/10 02:35:41;;;;;;;12.85;6.03;;;29.70;98.80;;;;;;5093772;28;20022;-70
2022/07/10 02:38:08;;;;;;;16.67;6.15;;;29.80;98.40;;;;;;5093828;28;20028;-68
2022/07/10 02:40:34;;;;;;;80.45;49.80;;;29.80;98.50;;;;;;5093792;28;20024;-68
2022/07/10 02:43:01;;;;;;;55.25;33.90;;;29.70;99.10;;;;;;5093883;28;20024;-68
2022/07/10 02:45:27;;;;;;;49.03;32.95;;;29.70;99.20;;;;;;5093750;28;20026;-71
2022/07/10 02:47:54;;;;;;;16.90;9.15;;;29.70;98.90;;;;;;5093391;28;20032;-69
2022/07/10 02:50:20;;;;;;;15.02;7.22;;;29.70;98.60;;;;;;5093699;28;20028;-70
2022/07/10 02:52:47;;;;;;;12.70;6.22;;;29.70;98.80;;;;;;5093778;28;20026;-70
2022/07/10 02:55:13;;;;;;;13.25;6.07;;;29.70;98.70;;;;;;5110978;28;20020;-71
2022/07/10 02:57:40;;;;;;;14.98;6.90;;;29.80;99.00;;;;;;5113835;28;20538;-71
2022/07/10 03:00:07;;;;;;;12.00;6.35;;;29.90;98.30;;;;;;5107766;27;20045;-69
2022/07/10 03:02:34;;;;;;;17.27;6.82;;;30.00;98.10;;;;;;5129472;28;20027;-70
2022/07/10 03:05:00;;;;;;;12.32;5.90;;;30.00;98.60;;;;;;5117928;28;20034;-70
2022/07/10 03:07:27;;;;;;;13.40;6.55;;;30.00;98.80;;;;;;5123727;27;20065;-70
2022/07/10 03:09:53;;;;;;;28.40;16.83;;;30.10;98.40;;;;;;5104862;28;20022;-71
2022/07/10 03:12:20;;;;;;;15.00;10.02;;;30.20;98.70;;;;;;5105431;28;20012;-71
2022/07/10 03:14:46;;;;;;;31.00;14.63;;;30.40;97.50;;;;;;5110737;28;20046;-71
2022/07/10 03:17:13;;;;;;;23.85;15.90;;;30.40;97.40;;;;;;5106453;28;20465;-71
2022/07/10 03:19:39;;;;;;;77.97;52.92;;;30.40;97.60;;;;;;5106537;28;20537;-72
2022/07/10 03:22:06;;;;;;;73.63;53.22;;;30.40;98.30;;;;;;5107815;28;20020;-70
2022/07/10 03:24:32;;;;;;;18.80;13.02;;;30.50;98.30;;;;;;5109131;28;20028;-71
2022/07/10 03:26:59;;;;;;;39.70;22.02;;;30.50;97.80;;;;;;5106940;28;20024;-69
2022/07/10 03:29:25;;;;;;;150.40;68.32;;;30.60;98.40;;;;;;5118395;28;20053;-69
2022/07/10 03:31:52;;;;;;;14.07;7.72;;;30.60;98.20;;;;;;5127701;28;20026;-73
2022/07/10 03:34:19;;;;;;;11.23;6.00;;;30.70;98.30;;;;;;5113584;27;20020;-69
2022/07/10 03:36:45;;;;;;;12.23;5.97;;;30.70;97.90;;;;;;5109312;28;20481;-69
2022/07/10 03:39:12;;;;;;;16.52;9.32;;;30.80;97.60;;;;;;5106557;28;20131;-68
2022/07/10 03:41:38;;;;;;;15.27;7.30;;;31.00;97.00;;;;;;5106242;28;20432;-67
2022/07/10 03:44:05;;;;;;;17.13;8.02;;;30.90;97.50;;;;;;5107888;28;20103;-65
2022/07/10 03:46:32;;;;;;;19.55;9.18;;;30.90;97.40;;;;;;5103645;27;20521;-66
2022/07/10 03:48:58;;;;;;;20.23;7.57;;;31.00;97.30;;;;;;5105641;28;20015;-67
2022/07/10 03:51:25;;;;;;;23.98;14.05;;;31.10;96.90;;;;;;5116843;28;20460;-69
2022/07/10 03:53:52;;;;;;;16.35;7.07;;;31.10;96.10;;;;;;5106369;27;20019;-71
2022/07/10 03:59:05;;;;;;;18.15;9.98;;;31.00;96.40;;;;;;5106767;27;20020;-71
2022/07/10 04:01:32;;;;;;;10.02;6.68;;;31.00;96.10;;;;;;5107523;27;20517;-71
2022/07/10 04:03:58;;;;;;;15.20;6.13;;;31.00;96.20;;;;;;5104379;27;20024;-70
2022/07/10 04:06:25;;;;;;;18.42;7.35;;;31.10;96.40;;;;;;5116080;27;20111;-69
2022/07/10 04:08:51;;;;;;;9.93;6.50;;;31.30;95.70;;;;;;5119140;27;20027;-70
2022/07/10 04:11:18;;;;;;;14.88;6.70;;;31.40;95.10;;;;;;5116777;28;20016;-72
2022/07/10 04:13:44;;;;;;;9.57;6.40;;;31.50;94.60;;;;;;5108088;27;20020;-68
2022/07/10 04:16:12;;;;;;;11.05;6.22;;;31.50;95.50;;;;;;5103747;28;20043;-68
2022/07/10 04:18:39;;;;;;;11.30;7.00;;;31.40;95.00;;;;;;5107113;28;20107;-69
2022/07/10 04:21:06;;;;;;;12.05;6.60;;;31.50;95.30;;;;;;5105401;28;20024;-69
2022/07/10 04:23:34;;;;;;;12.93;7.22;;;31.40;94.40;;;;;;5106020;28;20016;-69
2022/07/10 04:26:01;;;;;;;13.43;7.45;;;31.40;94.50;;;;;;5106928;28;20480;-69
2022/07/10 04:28:27;;;;;;;13.98;7.82;;;31.30;94.90;;;;;;5107318;28;20031;-69
2022/07/10 04:30:54;;;;;;;23.13;13.65;;;31.20;94.70;;;;;;5111768;27;20142;-69
2022/07/10 04:33:20;;;;;;;45.80;34.97;;;31.30;94.30;;;;;;5112284;27;20024;-69
2022/07/10 04:35:47;;;;;;;134.55;100.72;;;31.40;94.40;;;;;;5108153;27;20016;-68
2022/07/10 04:38:14;;;;;;;18.70;12.70;;;31.50;94.20;;;;;;5115030;27;20039;-69
2022/07/10 04:40:40;;;;;;;20.90;12.02;;;31.60;93.70;;;;;;5100364;28;20035;-69
2022/07/10 04:43:07;;;;;;;16.92;8.65;;;31.70;93.60;;;;;;5105583;28;20015;-73
2022/07/10 04:45:33;;;;;;;14.75;7.15;;;31.70;94.20;;;;;;5104715;28;20023;-68
2022/07/10 04:48:01;;;;;;;17.13;6.60;;;31.70;94.40;;;;;;5111542;28;20023;-73
2022/07/10 04:50:27;;;;;;;16.20;7.05;;;31.80;94.00;;;;;;5105491;27;20023;-67
2022/07/10 04:52:54;;;;;;;24.92;14.60;;;31.80;94.00;;;;;;5106550;28;20092;-67
2022/07/10 04:55:21;;;;;;;14.88;8.77;;;31.70;93.00;;;;;;5105973;28;20028;-69
2022/07/10 04:57:48;;;;;;;23.10;18.02;;;31.80;93.50;;;;;;5106175;28;20092;-68
2022/07/10 05:00:15;;;;;;;24.77;13.38;;;31.80;93.60;;;;;;5104827;28;20557;-70
2022/07/10 05:02:42;;;;;;;28.60;18.70;;;31.80;93.20;;;;;;5107104;27;20034;-72
2022/07/10 05:05:09;;;;;;;9.98;7.68;;;31.80;93.40;;;;;;5106543;28;20032;-72
2022/07/10 05:07:35;;;;;;;15.15;8.15;;;31.90;93.20;;;;;;5124589;27;20058;-70
2022/07/10 05:10:02;;;;;;;10.40;7.88;;;32.10;92.10;;;;;;5121008;27;20267;-69
2022/07/10 05:12:29;;;;;;;90.82;72.68;;;32.00;92.60;;;;;;5118066;27;20024;-68
2022/07/10 05:14:56;;;;;;;57.17;36.85;;;32.10;92.20;;;;;;5114319;27;20027;-69
2022/07/10 05:17:23;;;;;;;17.67;9.93;;;31.90;91.90;;;;;;5109337;27;20083;-68
2022/07/10 05:19:51;;;;;;;25.60;17.30;;;31.80;92.00;;;;;;5124883;27;20535;-72
2022/07/10 05:22:18;;;;;;;52.83;38.35;;;31.70;93.00;;;;;;5113715;27;20023;-71
2022/07/10 05:24:44;;;;;;;27.50;14.52;;;31.70;92.10;;;;;;5106521;28;20445;-70
2022/07/10 05:27:11;;;;;;;50.42;36.17;;;31.60;93.10;;;;;;5115990;28;20030;-69
2022/07/10 05:29:37;;;;;;;22.08;13.60;;;31.60;93.00;;;;;;5108516;27;20229;-69
2022/07/10 05:32:04;;;;;;;20.27;10.48;;;31.70;92.60;;;;;;5103981;28;20476;-73
2022/07/10 05:34:31;;;;;;;16.42;10.10;;;31.90;92.20;;;;;;5103263;27;20043;-69
2022/07/10 05:36:57;;;;;;;14.43;9.57;;;32.10;92.50;;;;;;5115638;28;20036;-69
2022/07/10 05:39:26;;;;;;;15.05;9.02;;;32.20;92.20;;;;;;5118366;27;20024;-68
2022/07/10 05:41:54;;;;;;;15.20;9.20;;;32.20;92.00;;;;;;5120234;27;20529;-72
2022/07/10 05:44:20;;;;;;;21.27;9.82;;;32.30;91.60;;;;;;5132432;27;20034;-71
2022/07/10 05:46:47;;;;;;;16.52;10.60;;;32.40;91.00;;;;;;5109208;27;20020;-68
2022/07/10 05:49:14;;;;;;;79.85;70.68;;;32.50;91.00;;;;;;5105138;27;20178;-70
2022/07/10 05:51:40;;;;;;;77.78;65.18;;;32.60;89.50;;;;;;5107321;28;20028;-69
2022/07/10 05:54:08;;;;;;;36.45;29.48;;;32.70;90.20;;;;;;5103241;28;20012;-68
2022/07/10 05:56:34;;;;;;;19.98;14.65;;;32.70;89.70;;;;;;5107134;27;20429;-69
2022/07/10 05:59:01;;;;;;;16.85;11.77;;;32.70;88.40;;;;;;5103625;27;20020;-68
2022/07/10 06:01:28;;;;;;;34.50;16.20;;;32.50;88.70;;;;;;5104058;27;20082;-68
2022/07/10 06:03:54;;;;;;;14.95;9.63;;;32.40;87.40;;;;;;5104185;28;20046;-67
2022/07/10 06:06:21;;;;;;;13.88;10.07;;;32.40;88.20;;;;;;5098707;27;20032;-69
2022/07/10 06:08:47;;;;;;;21.73;13.55;;;32.40;87.20;;;;;;5106828;27;20027;-67
2022/07/10 06:11:14;;;;;;;15.45;10.20;;;32.30;85.60;;;;;;5104854;27;20016;-68
2022/07/10 06:13:40;;;;;;;16.40;11.10;;;32.30;85.70;;;;;;5119874;27;20259;-68
2022/07/10 06:16:07;;;;;;;15.75;11.45;;;32.50;85.30;;;;;;5136011;27;20023;-69
2022/07/10 06:18:33;;;;;;;34.28;26.85;;;32.50;86.00;;;;;;5132999;27;20444;-69
2022/07/10 06:21:00;;;;;;;16.23;11.30;;;32.70;83.10;;;;;;5121619;27;20055;-71
2022/07/10 06:23:26;;;;;;;15.20;10.10;;;32.70;83.70;;;;;;5125793;27;20518;-66
2022/07/10 06:25:53;;;;;;;15.23;10.18;;;32.80;81.00;;;;;;5102652;28;20048;-65
2022/07/10 06:28:20;;;;;;;17.83;10.60;;;33.00;81.50;;;;;;5098674;28;20016;-67
2022/07/10 06:30:49;;;;;;;17.83;12.00;;;33.00;81.10;;;;;;5125995;27;20389;-62
2022/07/10 06:33:16;;;;;;;13.38;10.20;;;32.90;82.10;;;;;;5099741;28;20028;-63
2022/07/10 06:35:43;;;;;;;13.30;9.73;;;33.10;79.40;;;;;;5099904;28;20024;-61
2022/07/10 06:38:09;;;;;;;13.75;10.80;;;33.10;80.90;;;;;;5106911;28;20037;-61
2022/07/10 06:40:37;;;;;;;13.15;9.63;;;33.10;79.00;;;;;;5109938;27;20551;-63
2022/07/10 06:43:04;;;;;;;12.95;9.98;;;33.30;80.40;;;;;;5107233;28;20046;-64
2022/07/10 06:45:32;;;;;;;17.75;10.23;;;33.40;80.40;;;;;;5102790;28;20545;-64
2022/07/10 06:47:59;;;;;;;14.10;9.75;;;33.50;80.00;;;;;;5102947;28;20019;-63
2022/07/10 06:50:30;;;;;;;15.90;9.82;;;33.50;80.10;;;;;;5099278;28;20452;-63
2022/07/10 06:52:57;;;;;;;14.87;10.20;;;33.30;78.60;;;;;;5104071;28;20232;-63
2022/07/10 06:55:24;;;;;;;15.05;10.32;;;33.10;79.60;;;;;;5096404;28;20059;-62
2022/07/10 06:57:50;;;;;;;19.63;12.15;;;33.00;78.90;;;;;;5095724;28;20089;-62
2022/07/10 07:00:17;;;;;;;18.25;10.77;;;32.90;80.00;;;;;;5094449;28;20157;-62
2022/07/10 07:02:44;;;;;;;14.88;10.45;;;32.80;81.60;;;;;;5097949;27;20379;-61
2022/07/10 07:05:10;;;;;;;14.45;10.48;;;32.90;83.00;;;;;;5098007;28;20055;-62
2022/07/10 07:07:37;;;;;;;14.50;12.00;;;33.10;81.60;;;;;;5109414;28;20016;-61
2022/07/10 07:10:05;;;;;;;14.48;10.80;;;33.40;80.00;;;;;;5104216;28;20028;-63
2022/07/10 07:12:32;;;;;;;17.63;11.45;;;33.60;80.90;;;;;;5104642;28;20106;-60
2022/07/10 07:14:58;;;;;;;30.38;20.08;;;33.60;81.70;;;;;;5107519;28;20034;-61
2022/07/10 07:17:33;;;;;;;14.77;12.90;;;33.50;81.90;;;;;;5107856;28;20370;-62
2022/07/10 07:25:34;;;;;;;17.73;11.27;;;33.00;82.80;;;;;;5106510;28;20105;-61
2022/07/10 07:28:00;;;;;;;17.63;11.52;;;33.00;81.80;;;;;;5118445;27;20032;-63
2022/07/10 07:30:27;;;;;;;15.63;10.40;;;32.90;82.40;;;;;;5108840;27;20035;-64
2022/07/10 07:32:53;;;;;;;17.08;10.60;;;32.80;82.30;;;;;;5110020;27;20039;-63
2022/07/10 07:35:20;;;;;;;18.95;12.48;;;32.80;83.60;;;;;;5108076;28;20091;-63
2022/07/10 07:37:48;;;;;;;23.80;15.10;;;32.80;84.00;;;;;;5106798;27;20036;-61
2022/07/10 07:40:22;;;;;;;20.33;13.55;;;32.70;81.00;;;;;;5106013;27;20161;-61
2022/07/10 07:42:50;;;;;;;43.70;36.92;;;32.60;81.00;;;;;;5105665;27;20107;-66
2022/07/10 07:45:16;;;;;;;25.45;20.05;;;32.50;80.60;;;;;;5109948;27;20125;-69
2022/07/10 07:47:57;;;;;;;35.67;27.10;;;32.50;80.80;;;;;;5105859;27;20024;-71
2022/07/10 07:50:35;;;;;;;45.47;32.90;;;32.40;80.40;;;;;;5102750;28;20429;-66
2022/07/10 07:53:03;;;;;;;21.30;16.52;;;32.40;78.70;;;;;;5105166;27;20031;-65
2022/07/10 07:55:31;;;;;;;20.33;16.30;;;32.40;78.70;;;;;;5100850;28;20486;-65
2022/07/10 07:57:58;;;;;;;18.80;15.27;;;32.50;79.80;;;;;;5100736;28;20084;-67
2022/07/10 08:00:28;;;;;;;19.48;14.38;;;32.50;80.90;;;;;;5100863;28;20282;-67
2022/07/10 08:02:56;;;;;;;16.52;12.90;;;32.60;79.80;;;;;;5103345;27;20034;-67
2022/07/10 08:05:24;;;;;;;17.88;13.52;;;32.80;79.20;;;;;;5104497;27;20031;-65
2022/07/10 08:07:55;;;;;;;24.08;14.88;;;33.00;79.20;;;;;;5109801;27;20028;-66
2022/07/10 08:10:23;;;;;;;16.58;13.88;;;33.20;79.90;;;;;;5111330;27;20027;-66
2022/07/10 08:12:50;;;;;;;25.70;17.23;;;33.40;78.40;;;;;;5114923;27;20030;-66
2022/07/10 08:15:21;;;;;;;19.42;15.07;;;33.50;78.90;;;;;;5112005;27;20043;-67
2022/07/10 08:17:49;;;;;;;18.77;15.75;;;33.60;78.30;;;;;;5105823;28;20036;-69
2022/07/10 08:20:16;;;;;;;21.52;15.35;;;33.70;79.10;;;;;;5105916;28;20085;-67
2022/07/10 08:22:44;;;;;;;19.20;13.25;;;33.70;76.80;;;;;;5109826;27;20110;-66
2022/07/10 08:25:11;;;;;;;16.92;13.45;;;33.70;77.60;;;;;;5110144;27;20043;-67
2022/07/10 08:27:38;;;;;;;16.60;14.45;;;33.60;78.50;;;;;;5110981;27;20032;-67
2022/07/10 08:30:06;;;;;;;19.70;14.98;;;33.40;78.60;;;;;;5112187;27;20016;-66
2022/07/10 08:32:32;;;;;;;24.25;15.80;;;33.20;79.00;;;;;;5111790;27;20091;-67
2022/07/10 08:34:59;;;;;;;21.17;14.35;;;33.00;79.80;;;;;;5115618;27;20110;-66
2022/07/10 08:37:25;;;;;;;19.15;15.25;;;32.90;79.40;;;;;;5107735;27;20019;-67
2022/07/10 08:39:52;;;;;;;19.70;15.32;;;32.80;79.00;;;;;;5110669;27;20020;-68
2022/07/10 08:42:19;;;;;;;20.27;13.48;;;32.70;80.10;;;;;;5106944;27;20077;-65
2022/07/10 08:44:45;;;;;;;29.63;20.13;;;32.60;79.70;;;;;;5110616;27;20116;-66
2022/07/10 08:47:12;;;;;;;19.45;15.60;;;32.60;79.70;;;;;;5111803;27;20024;-65
2022/07/10 08:49:48;;;;;;;28.48;19.25;;;32.50;81.00;;;;;;5111453;27;20459;-67
2022/07/10 08:52:29;;;;;;;26.27;19.27;;;32.50;81.30;;;;;;5110585;28;20012;-66
2022/07/10 08:54:56;;;;;;;29.98;22.17;;;32.50;81.40;;;;;;5108801;28;20038;-66
2022/07/10 08:57:24;;;;;;;26.10;19.35;;;32.50;81.70;;;;;;5109133;28;20098;-68
2022/07/10 08:59:51;;;;;;;23.83;17.15;;;32.40;81.70;;;;;;5110185;27;20039;-69
2022/07/10 09:02:17;;;;;;;21.00;15.23;;;32.40;81.90;;;;;;5109175;27;20266;-69
2022/07/10 09:04:44;;;;;;;27.02;18.45;;;32.40;82.10;;;;;;5106496;27;20035;-68
2022/07/10 09:07:11;;;;;;;26.08;20.08;;;32.40;82.60;;;;;;5107699;27;20026;-68
2022/07/10 09:09:58;;;;;;;30.10;22.27;;;32.40;82.60;;;;;;5109403;27;20027;-69
2022/07/10 09:12:25;;;;;;;30.00;22.23;;;32.50;82.60;;;;;;5094934;28;20012;-70
2022/07/10 09:14:52;;;;;;;23.08;16.88;;;32.60;82.40;;;;;;5108791;27;20093;-71
2022/07/10 09:17:19;;;;;;;28.55;20.75;;;32.50;83.70;;;;;;5103267;27;20027;-68
2022/07/10 09:19:45;;;;;;;33.55;20.60;;;32.60;82.90;;;;;;5096138;28;20389;-70
2022/07/10 09:22:14;;;;;;;28.58;19.75;;;32.50;83.70;;;;;;5098128;28;20020;-71
2022/07/10 09:24:43;;;;;;;24.92;19.38;;;32.50;84.40;;;;;;5099116;27;20492;-70
2022/07/10 09:27:11;;;;;;;29.83;22.38;;;32.50;85.60;;;;;;5095961;28;20056;-68
2022/07/10 09:29:51;;;;;;;23.77;16.50;;;32.60;85.80;;;;;;5097598;28;20034;-69
2022/07/10 09:32:18;;;;;;;17.33;12.75;;;32.50;84.40;;;;;;5111972;27;20092;-68
2022/07/10 09:34:48;;;;;;;20.42;15.23;;;32.50;84.40;;;;;;5112014;28;20028;-69
2022/07/10 09:37:28;;;;;;;20.92;14.45;;;32.40;85.30;;;;;;5108779;27;20040;-69
2022/07/10 09:39:58;;;;;;;27.30;14.70;;;32.40;84.90;;;;;;5102376;27;20024;-69
2022/07/10 09:42:37;;;;;;;21.52;14.30;;;32.40;85.30;;;;;;5108047;28;20058;-68
2022/07/10 09:45:13;;;;;;;17.35;12.88;;;32.40;85.90;;;;;;5111627;28;20829;-70
2022/07/10 09:47:43;;;;;;;20.63;15.27;;;32.40;86.00;;;;;;5106632;28;20295;-65
2022/07/10 09:50:25;;;;;;;28.77;16.60;;;32.30;84.60;;;;;;5110276;27;20575;-65
2022/07/10 09:52:57;;;;;;;22.58;15.85;;;32.30;85.50;;;;;;5112111;28;20027;-64
2022/07/10 09:55:26;;;;;;;16.88;11.98;;;32.30;84.00;;;;;;5102599;27;20043;-64
2022/07/10 09:57:58;;;;;;;20.85;14.25;;;32.20;83.50;;;;;;5101935;27;20063;-65
2022/07/10 10:00:29;;;;;;;21.65;15.00;;;32.20;84.10;;;;;;5105009;27;20099;-65
2022/07/10 10:02:58;;;;;;;18.67;13.95;;;32.20;84.10;;;;;;5101510;27;20040;-64
2022/07/10 10:05:49;;;;;;;20.20;14.57;;;32.20;85.20;;;;;;5101553;27;20380;-64
2022/07/10 10:08:24;;;;;;;24.33;17.08;;;32.20;86.60;;;;;;5066193;28;20028;-64
2022/07/10 10:10:51;;;;;;;32.83;19.88;;;32.20;86.30;;;;;;5065755;28;20147;-64
2022/07/10 10:13:27;;;;;;;30.25;19.67;;;32.20;86.20;;;;;;5065474;28;20082;-65
2022/07/10 10:15:54;;;;;;;37.53;19.90;;;32.20;84.70;;;;;;5070075;28;20028;-65
2022/07/10 10:18:25;;;;;;;31.58;19.15;;;32.20;84.80;;;;;;5064053;28;20029;-65
2022/07/10 10:20:53;;;;;;;41.22;24.23;;;32.10;83.70;;;;;;5059651;28;20076;-65
2022/07/10 10:23:22;;;;;;;28.08;18.73;;;32.00;85.20;;;;;;5059738;28;20036;-65
2022/07/10 10:25:58;;;;;;;26.65;17.60;;;32.00;85.40;;;;;;5066105;28;20048;-65
2022/07/10 10:28:26;;;;;;;34.63;23.90;;;31.90;86.70;;;;;;5058310;28;20075;-63
2022/07/10 10:30:59;;;;;;;62.20;35.75;;;32.00;85.50;;;;;;5061472;28;20070;-64
2022/07/10 10:33:42;;;;;;;62.97;32.08;;;31.90;86.00;;;;;;5066242;28;20433;-63
2022/07/10 10:36:12;;;;;;;41.10;21.50;;;31.90;85.80;;;;;;5062128;28;20040;-65
2022/07/10 10:39:01;;;;;;;43.50;23.90;;;31.80;85.60;;;;;;5059072;28;20516;-64
2022/07/10 10:41:38;;;;;;;26.35;18.77;;;31.80;85.70;;;;;;5060977;28;20043;-64
2022/07/10 10:44:16;;;;;;;28.83;19.55;;;31.70;85.80;;;;;;5057056;28;20061;-65
2022/07/10 10:46:54;;;;;;;35.05;20.10;;;31.70;85.80;;;;;;5054461;28;20500;-65
2022/07/10 10:49:25;;;;;;;33.60;20.58;;;31.60;86.60;;;;;;5055123;28;20036;-65
2022/07/10 10:52:17;;;;;;;27.10;17.08;;;31.60;86.30;;;;;;5081311;28;20032;-65
2022/07/10 10:55:07;;;;;;;88.82;63.13;;;31.60;86.80;;;;;;5100724;28;20353;-65
2022/07/10 10:57:36;;;;;;;39.03;27.27;;;31.60;87.10;;;;;;5101165;28;20077;-64
2022/07/10 11:00:07;;;;;;;52.05;36.58;;;31.50;86.90;;;;;;5103104;27;20114;-65
2022/07/10 11:02:39;;;;;;;68.90;51.70;;;31.50;87.70;;;;;;5101720;28;20031;-66
2022/07/10 11:05:34;;;;;;;47.60;37.20;;;31.50;87.20;;;;;;5110513;27;20031;-66
2022/07/10 11:08:03;;;;;;;117.22;95.63;;;31.50;87.40;;;;;;5104728;28;20119;-65
2022/07/10 11:10:35;;;;;;;98.07;80.30;;;31.50;88.00;;;;;;5104371;28;20039;-65
2022/07/10 11:13:02;;;;;;;68.63;49.35;;;31.50;88.30;;;;;;5104502;28;20441;-64
2022/07/10 11:15:32;;;;;;;46.65;30.40;;;31.40;88.10;;;;;;5103307;28;20031;-64
2022/07/10 11:18:21;;;;;;;37.80;23.05;;;31.40;88.70;;;;;;5106045;28;20032;-64
2022/07/10 11:20:50;;;;;;;42.55;23.02;;;31.40;89.20;;;;;;5103617;27;20034;-63
2022/07/10 11:23:58;;;;;;;66.78;46.72;;;31.40;90.50;;;;;;5100512;27;20023;-64
2022/07/10 11:26:51;;;;;;;35.28;23.75;;;31.40;90.20;;;;;;5105684;28;20055;-63
2022/07/10 11:29:18;;;;;;;36.10;23.42;;;31.30;90.00;;;;;;5060595;28;20033;-64
2022/07/10 11:31:53;;;;;;;40.65;27.73;;;31.30;90.30;;;;;;5066177;28;20069;-63
2022/07/10 11:34:21;;;;;;;33.97;23.00;;;31.20;90.30;;;;;;5062904;28;20499;-63
2022/07/10 11:36:48;;;;;;;41.00;25.70;;;31.10;90.60;;;;;;5068279;28;20494;-64
2022/07/10 11:39:16;;;;;;;32.45;21.98;;;31.10;90.80;;;;;;5065351;28;20025;-65
2022/07/10 11:41:45;;;;;;;33.00;23.77;;;31.10;91.10;;;;;;5066729;28;20527;-69
2022/07/10 11:44:16;;;;;;;48.30;32.55;;;31.00;90.90;;;;;;5065754;28;20028;-63
2022/07/10 11:46:44;;;;;;;41.80;28.92;;;31.00;91.40;;;;;;5065898;28;20021;-64
2022/07/10 11:49:14;;;;;;;61.75;43.97;;;31.00;91.40;;;;;;5066219;28;20106;-64
2022/07/10 11:51:43;;;;;;;39.70;25.00;;;30.90;91.30;;;;;;5066165;28;20035;-63
2022/07/10 11:54:12;;;;;;;33.88;23.55;;;30.90;91.90;;;;;;5063104;28;20027;-64
2022/07/10 11:56:43;;;;;;;34.60;20.83;;;30.80;91.80;;;;;;5064214;28;20456;-65
2022/07/10 11:59:12;;;;;;;35.08;22.67;;;30.90;92.20;;;;;;5061178;28;20024;-63
2022/07/10 12:01:49;;;;;;;30.70;20.13;;;30.90;91.80;;;;;;5061107;28;20067;-64
2022/07/10 12:04:18;;;;;;;31.15;20.90;;;30.80;92.10;;;;;;5064347;28;20493;-64
2022/07/10 12:06:46;;;;;;;28.83;20.60;;;30.80;92.20;;;;;;5064424;28;20032;-64
2022/07/10 12:09:14;;;;;;;31.27;18.55;;;30.80;92.10;;;;;;5064840;28;20405;-63
2022/07/10 12:11:43;;;;;;;28.13;18.40;;;30.70;92.00;;;;;;5055356;28;20025;-63
2022/07/10 12:14:09;;;;;;;32.85;19.98;;;30.60;92.10;;;;;;5095243;28;20020;-63
2022/07/10 12:16:36;;;;;;;32.83;19.15;;;30.60;92.60;;;;;;5094306;28;20053;-62
2022/07/10 12:19:03;;;;;;;31.75;20.80;;;30.60;92.50;;;;;;5094334;28;20031;-64
2022/07/10 12:21:31;;;;;;;44.15;23.85;;;30.60;92.50;;;;;;5094028;28;20016;-63
2022/07/10 12:23:57;;;;;;;31.85;18.55;;;30.60;92.60;;;;;;5094077;28;20031;-63
2022/07/10 12:26:34;;;;;;;30.27;18.92;;;30.50;92.50;;;;;;5093905;28;20047;-68
2022/07/10 12:29:01;;;;;;;28.77;16.58;;;30.50;92.70;;;;;;5100213;28;20090;-67
2022/07/10 12:31:32;;;;;;;28.10;15.25;;;30.40;93.00;;;;;;5107148;28;20024;-67
2022/07/10 12:34:01;;;;;;;29.98;16.92;;;30.40;92.80;;;;;;5103930;28;20095;-68
2022/07/10 12:36:43;;;;;;;26.75;15.82;;;30.40;92.80;;;;;;5105326;28;20016;-70
2022/07/10 12:39:11;;;;;;;28.27;16.88;;;30.30;92.90;;;;;;5105038;28;20073;-68
2022/07/10 12:41:58;;;;;;;27.23;17.02;;;30.30;93.00;;;;;;5104287;28;20424;-64
2022/07/10 12:44:47;;;;;;;27.58;17.63;;;30.30;93.40;;;;;;5102947;28;20098;-64
2022/07/10 12:47:17;;;;;;;29.42;18.63;;;30.30;93.50;;;;;;5104490;28;20122;-65
2022/07/10 12:49:49;;;;;;;31.35;20.15;;;30.30;93.70;;;;;;5102393;28;20027;-64